NCAR-RAP Real-Time Weather Data

Output produced by METARs form (26 May 2022  08:55 UTC)
found at http://weather.rap.ucar.edu/surface/
 
KDTW 260753Z 18010KT 8SM BKN006 BKN025 OVC095 19/18 A2991 RMK AO2 RAE31 SLP125 P0000 T01940183 $
KDTW 260734Z 17013KT 7SM BKN007 BKN025 OVC095 19/18 A2991 RMK AO2 RAE31 P0000 T01940183 $
KDTW 260653Z 16012KT 4SM RA BR BKN018 OVC065 19/18 A2991 RMK AO2 RAE16B51 SLP127 P0002 T01940183 $
KDTW 260651Z 16010KT 4SM RA BR BKN018 OVC065 19/18 A2992 RMK AO2 RAE16B51 P0000 $
KDTW 260553Z 18012KT 5SM -RA BR SCT022 BKN060 OVC095 19/18 A2993 RMK AO2 SLP131 P0012 60037 T01940183 10206 20189 58012 $
KDTW 260522Z 17010KT 5SM -RA BR SCT022 BKN060 OVC095 19/18 A2994 RMK AO2 P0008 T01890178 $
KDTW 260509Z 18009KT 4SM RA BR FEW008 BKN028 OVC065 19/18 A2994 RMK AO2 P0006 T01890178 $
KDTW 260453Z 18008KT 4SM RA BR SCT008 BKN035 OVC080 19/17 A2995 RMK AO2 SLP140 P0025 T01890172 402170111
KDTW 260448Z 19008KT 4SM RA BR SCT008 BKN035 OVC080 19/17 A2996 RMK AO2 P0023
KDTW 260438Z 18008KT 3SM +RA BR SCT008 BKN025 OVC045 19/17 A2996 RMK AO2 TWR VIS 4 P0020 T01890172
KDTW 260428Z 17011G16KT 3SM +RA BR BKN025 BKN055 OVC085 19/17 A2996 RMK AO2 TWR VIS 4 P0010 T01890172
KDTW 260353Z 14004KT 5SM RA BKN055 OVC110 19/16 A2995 RMK AO2 RAE14B51 SLP140 P0000 T01890156
KDTW 260253Z 00000KT 10SM -RA FEW050 BKN090 OVC120 19/15 A2996 RMK AO2 RAB49 SLP144 P0000 60000 T01890150 55005
KDTW 260153Z 11007KT 10SM FEW050 BKN200 19/14 A2996 RMK AO2 SLP143 T01940144
KDTW 260053Z 08006KT 10SM FEW050 SCT080 BKN180 20/14 A2996 RMK AO2 SLP145 T02000144
KDTW 252353Z 09007KT 10SM FEW050 SCT080 BKN180 21/14 A2998 RMK AO2 SLP150 60002 T02060144 10217 20183 56018
KDTW 252253Z 09007KT 10SM FEW045 SCT080 BKN160 21/14 A2999 RMK AO2 SLP155 T02110144
KDTW 252153Z 11011G18KT 10SM SCT045 BKN060 BKN140 21/16 A3001 RMK AO2 SLP162 T02110156
KDTW 252053Z 10007G17KT 10SM FEW030 BKN050 OVC065 20/16 A3003 RMK AO2 RAE1955 SLP170 P0000 60002 T02000156 58022
KDTW 252006Z 11008G17KT 8SM BKN030 OVC050 19/16 A3006 RMK AO2 RAE1955 P0000 T01940161
KDTW 251953Z 11008KT 3SM -RA OVC025 19/17 A3006 RMK AO2 TWR VIS 4 SLP178 P0002 T01940167
KDTW 251920Z 12008KT 3SM -RA OVC025 18/16 A3008 RMK AO2 TWR VIS 4 P0001 T01830156